Time;durP1;ratioP1;P1;durP2;ratioP2;P2;SDS_P1;SDS_P2;PMS_P1;PMS_P2;Temp;Humidity;BMP_temperature;BMP_pressure;BME280_temperature;BME280_humidity;BME280_pressure;Samples;Min_cycle;Max_cycle;Signal;HPM_P1;HPM_P2
2023/06/06 04:22:33;;;;;;;4.47;2.88;;;;;;;14.82;100.00;100277.53;5089390;28;20389;-68
2023/06/06 04:24:58;;;;;;;3.17;2.35;;;;;;;14.90;100.00;100286.22;5089469;28;20044;-68
2023/06/06 04:27:24;;;;;;;2.88;2.28;;;;;;;14.94;100.00;100281.31;5088140;28;20036;-68
2023/06/06 04:29:53;;;;;;;2.53;2.00;;;;;;;14.93;100.00;100274.25;5087797;28;20105;-69
2023/06/06 04:32:19;;;;;;;2.47;2.20;;;;;;;15.05;100.00;100287.91;5089365;28;20043;-68
2023/06/06 04:34:46;;;;;;;4.72;2.60;;;;;;;15.14;100.00;100274.13;5088041;28;20071;-68
2023/06/06 04:37:14;;;;;;;2.60;2.10;;;;;;;15.24;99.55;100286.34;5088085;28;20028;-68
2023/06/06 04:39:41;;;;;;;3.67;2.50;;;;;;;15.31;99.61;100295.22;5088888;28;20689;-68
2023/06/06 04:42:07;;;;;;;3.38;2.55;;;;;;;15.38;98.72;100288.00;5086931;28;20548;-68
2023/06/06 04:44:33;;;;;;;2.72;2.42;;;;;;;15.35;98.54;100288.44;5089655;28;20187;-68
2023/06/06 04:47:03;;;;;;;5.40;2.88;;;;;;;15.44;98.31;100285.34;5088869;28;20493;-68
2023/06/06 04:49:35;;;;;;;3.20;2.17;;;;;;;15.54;97.46;100282.28;5087337;28;20028;-68
2023/06/06 04:52:12;;;;;;;4.55;2.80;;;;;;;15.62;97.50;100294.69;5087759;28;20575;-66
2023/06/06 04:54:39;;;;;;;3.78;2.42;;;;;;;15.72;96.30;100287.06;5088931;28;20028;-65
2023/06/06 04:57:07;;;;;;;3.65;2.33;;;;;;;15.79;95.88;100287.91;5088820;28;20040;-65
2023/06/06 04:59:33;;;;;;;3.42;2.60;;;;;;;15.89;94.78;100293.66;5088533;28;20028;-66
2023/06/06 05:02:01;;;;;;;3.42;2.38;;;;;;;15.94;94.38;100280.44;5088773;28;20060;-66
2023/06/06 05:04:29;;;;;;;2.90;2.42;;;;;;;16.00;94.29;100282.31;5088726;28;20120;-65
2023/06/06 05:06:55;;;;;;;3.22;2.25;;;;;;;15.95;94.32;100294.72;5088573;28;20036;-65
2023/06/06 05:09:21;;;;;;;3.10;2.30;;;;;;;15.93;94.06;100292.25;5088218;28;20032;-65
2023/06/06 05:11:48;;;;;;;4.60;1.90;;;;;;;16.00;93.72;100289.56;5088564;28;20032;-65
2023/06/06 05:14:14;;;;;;;;;;;;;;;16.10;92.53;100286.44;5088786;28;20025;-66
2023/06/06 05:16:40;;;;;;;3.28;2.35;;;;;;;16.10;92.34;100276.50;5088449;28;20390;-64
2023/06/06 05:19:06;;;;;;;3.53;2.13;;;;;;;16.11;91.70;100285.41;5088219;28;20044;-65
2023/06/06 05:21:33;;;;;;;2.38;1.90;;;;;;;16.04;92.56;100290.81;5088174;28;20043;-65
2023/06/06 05:23:58;;;;;;;2.67;2.28;;;;;;;16.04;92.55;100288.13;5088289;28;20047;-65
2023/06/06 05:26:25;;;;;;;2.78;2.00;;;;;;;16.20;91.48;100297.59;5088169;28;20040;-66
2023/06/06 05:28:51;;;;;;;2.60;2.07;;;;;;;16.32;90.18;100293.25;5087973;28;20032;-66
2023/06/06 05:31:20;;;;;;;2.97;1.98;;;;;;;16.37;89.61;100304.19;5088245;28;20473;-65
2023/06/06 05:33:46;;;;;;;2.75;1.83;;;;;;;16.36;90.02;100299.81;5075521;28;20036;-65
2023/06/06 05:36:12;;;;;;;3.05;2.10;;;;;;;16.42;89.37;100301.69;5074581;28;20548;-65
2023/06/06 05:38:37;;;;;;;3.75;2.10;;;;;;;16.46;89.36;100294.03;5074264;28;20037;-65
2023/06/06 05:41:02;;;;;;;2.63;1.98;;;;;;;16.51;89.00;100299.63;5074518;28;20044;-65
2023/06/06 05:43:30;;;;;;;3.75;2.42;;;;;;;16.65;88.68;100301.22;5074539;28;20116;-66
2023/06/06 05:45:56;;;;;;;2.28;2.00;;;;;;;16.65;87.99;100305.78;5074436;28;20040;-64
2023/06/06 05:48:21;;;;;;;3.38;2.20;;;;;;;16.65;87.90;100292.34;5074217;28;20083;-63
2023/06/06 05:50:47;;;;;;;2.45;1.98;;;;;;;16.68;88.04;100303.47;5074288;28;20060;-64
2023/06/06 05:53:12;;;;;;;2.80;2.05;;;;;;;16.76;87.49;100299.78;5074230;28;20035;-64
2023/06/06 05:55:38;;;;;;;3.15;2.05;;;;;;;16.90;86.89;100304.06;5074189;28;20048;-66
2023/06/06 05:58:04;;;;;;;3.42;2.10;;;;;;;16.94;86.26;100307.16;5074238;28;20086;-64
2023/06/06 06:00:32;;;;;;;2.90;2.10;;;;;;;17.05;85.56;100309.19;5073707;28;20029;-64
2023/06/06 06:02:59;;;;;;;3.03;2.10;;;;;;;17.17;85.37;100309.34;5074243;28;20064;-64
2023/06/06 06:05:29;;;;;;;3.97;2.05;;;;;;;17.29;84.77;100313.00;5074084;28;20047;-65
2023/06/06 06:07:59;;;;;;;2.80;2.05;;;;;;;17.26;84.41;100316.94;5074071;28;20048;-63
2023/06/06 06:10:25;;;;;;;2.53;2.10;;;;;;;17.38;82.97;100313.56;5073718;28;20063;-63
2023/06/06 06:12:50;;;;;;;2.72;2.13;;;;;;;17.43;82.98;100317.25;5074042;28;20036;-64
2023/06/06 06:15:16;;;;;;;3.03;2.08;;;;;;;17.48;83.13;100317.44;5073944;28;20044;-64
2023/06/06 06:17:41;;;;;;;3.67;2.25;;;;;;;17.55;83.01;100317.41;5073896;28;20036;-64
2023/06/06 06:20:09;;;;;;;2.15;1.95;;;;;;;17.55;82.34;100320.09;5072125;28;20063;-64
2023/06/06 06:22:35;;;;;;;3.72;2.58;;;;;;;17.53;82.82;100314.91;5073760;28;20056;-64
2023/06/06 06:25:03;;;;;;;3.75;2.00;;;;;;;17.60;81.92;100318.41;5073725;28;20044;-64
2023/06/06 06:27:32;;;;;;;2.53;1.98;;;;;;;17.67;80.27;100328.28;5073606;28;20170;-64
2023/06/06 06:30:01;;;;;;;2.50;2.00;;;;;;;17.83;80.85;100325.94;5073308;28;20040;-64
2023/06/06 06:32:26;;;;;;;3.42;2.30;;;;;;;17.96;78.57;100322.31;5073599;28;20477;-64
2023/06/06 06:34:52;;;;;;;2.60;2.00;;;;;;;18.10;77.78;100331.94;5073287;28;20162;-64
2023/06/06 06:37:17;;;;;;;3.53;2.05;;;;;;;18.12;77.42;100326.31;5073324;28;20042;-64
2023/06/06 06:39:43;;;;;;;2.75;1.90;;;;;;;18.09;77.46;100329.47;5071748;28;20536;-64
2023/06/06 06:42:08;;;;;;;2.90;1.85;;;;;;;18.17;78.30;100342.66;5072084;28;20037;-64
2023/06/06 06:44:48;;;;;;;2.75;1.98;;;;;;;18.25;76.96;100339.66;5071006;28;20039;-64
2023/06/06 06:47:13;;;;;;;2.65;1.92;;;;;;;18.46;75.98;100343.03;5073312;28;20037;-64
2023/06/06 06:49:40;;;;;;;3.13;2.28;;;;;;;18.54;74.40;100335.47;5072775;28;20032;-64
2023/06/06 06:52:07;;;;;;;3.40;2.05;;;;;;;18.59;74.61;100337.50;5073183;28;20036;-63
2023/06/06 06:54:35;;;;;;;2.38;2.10;;;;;;;18.77;73.79;100334.00;5073204;28;20037;-64
2023/06/06 06:57:02;;;;;;;4.55;1.83;;;;;;;18.85;72.64;100336.44;5071740;28;20043;-64
2023/06/06 06:59:28;;;;;;;2.40;1.70;;;;;;;18.92;72.25;100339.88;5072759;28;20067;-64
2023/06/06 07:01:55;;;;;;;2.70;2.00;;;;;;;18.97;71.32;100337.28;5071832;28;20040;-65
2023/06/06 07:04:20;;;;;;;3.85;2.10;;;;;;;19.04;71.07;100329.13;5073033;28;20028;-65
2023/06/06 07:06:46;;;;;;;3.15;2.20;;;;;;;19.10;69.45;100337.13;5072776;28;20138;-65
2023/06/06 07:09:15;;;;;;;3.08;1.70;;;;;;;19.18;68.73;100338.72;5072459;28;20036;-65
2023/06/06 07:11:40;;;;;;;2.40;1.75;;;;;;;19.35;67.63;100338.91;5072585;28;20073;-65
2023/06/06 07:14:06;;;;;;;2.72;1.90;;;;;;;19.42;63.46;100328.81;5072728;28;20064;-65
2023/06/06 07:16:34;;;;;;;3.22;1.85;;;;;;;19.60;63.24;100338.78;5072727;28;20049;-65
2023/06/06 07:18:59;;;;;;;2.22;1.75;;;;;;;19.72;60.94;100340.47;5072590;28;20444;-65
2023/06/06 07:21:25;;;;;;;2.83;1.85;;;;;;;19.66;61.83;100335.16;5072517;28;20040;-65
2023/06/06 07:23:51;;;;;;;2.50;1.70;;;;;;;19.88;60.90;100338.97;5072699;28;20087;-62
2023/06/06 07:26:18;;;;;;;3.28;2.03;;;;;;;19.99;59.16;100342.75;5072500;28;20045;-63
2023/06/06 07:28:45;;;;;;;2.70;1.90;;;;;;;20.09;57.33;100342.22;5072264;28;20370;-64
2023/06/06 07:31:10;;;;;;;4.25;2.13;;;;;;;20.22;56.03;100342.00;5072304;28;20500;-64
2023/06/06 07:33:36;;;;;;;3.28;2.00;;;;;;;20.33;54.90;100336.56;5072427;28;20037;-65
2023/06/06 07:36:03;;;;;;;2.00;1.55;;;;;;;20.28;55.04;100344.56;5072340;28;20032;-64
2023/06/06 07:38:28;;;;;;;2.95;1.95;;;;;;;20.51;55.01;100345.66;5072060;28;20040;-65
2023/06/06 07:40:53;;;;;;;2.72;1.80;;;;;;;20.55;54.83;100341.44;5072404;28;20035;-64
2023/06/06 07:43:19;;;;;;;3.25;2.17;;;;;;;20.70;54.81;100330.94;5072324;28;20438;-62
2023/06/06 07:45:45;;;;;;;2.53;2.10;;;;;;;20.82;54.85;100333.63;5072200;28;20544;-63
2023/06/06 07:48:10;;;;;;;5.20;2.58;;;;;;;20.85;53.86;100328.53;5072347;28;20029;-62
2023/06/06 07:50:36;;;;;;;3.03;1.95;;;;;;;20.97;54.28;100325.00;5071828;28;20486;-62
2023/06/06 07:53:01;;;;;;;3.47;2.20;;;;;;;21.09;54.51;100323.06;5072150;28;20049;-64
2023/06/06 07:55:28;;;;;;;2.70;1.85;;;;;;;21.28;54.23;100329.97;5071826;28;20078;-64
2023/06/06 07:57:56;;;;;;;4.03;2.00;;;;;;;21.42;52.02;100330.50;5072118;28;20044;-64
2023/06/06 08:00:22;;;;;;;3.53;2.47;;;;;;;21.58;50.84;100329.75;5071775;28;20091;-64
2023/06/06 08:02:47;;;;;;;3.75;2.00;;;;;;;21.59;51.56;100322.44;5072102;28;20060;-64
2023/06/06 08:05:13;;;;;;;2.90;1.88;;;;;;;21.76;51.04;100315.13;5072007;28;20048;-64
2023/06/06 08:07:42;;;;;;;2.25;1.90;;;;;;;21.86;51.20;100325.34;5070803;28;20032;-64
2023/06/06 08:10:08;;;;;;;4.07;2.38;;;;;;;21.91;52.48;100328.97;5071640;28;20090;-64
2023/06/06 08:12:34;;;;;;;2.58;1.70;;;;;;;21.94;51.01;100327.63;5070580;28;20032;-63
2023/06/06 08:15:00;;;;;;;3.33;2.22;;;;;;;22.01;49.98;100325.56;5071907;28;20039;-63
2023/06/06 08:17:26;;;;;;;3.65;1.98;;;;;;;22.14;50.35;100327.16;5071778;28;20131;-63
2023/06/06 08:19:51;;;;;;;3.00;1.80;;;;;;;22.19;48.07;100324.53;5071581;28;20040;-64
2023/06/06 08:22:17;;;;;;;2.28;1.70;;;;;;;22.38;47.16;100316.97;5070530;28;20520;-62
2023/06/06 08:24:43;;;;;;;4.28;2.67;;;;;;;22.44;47.00;100322.22;5071661;28;20028;-62
2023/06/06 08:27:10;;;;;;;2.10;1.60;;;;;;;22.41;47.25;100333.56;5071634;28;20602;-64
2023/06/06 08:29:35;;;;;;;2.90;2.10;;;;;;;22.52;46.45;100331.00;5071506;28;20055;-62
2023/06/06 08:32:01;;;;;;;2.78;2.05;;;;;;;22.69;46.22;100320.91;5071875;28;20037;-61
2023/06/06 08:34:27;;;;;;;2.55;1.67;;;;;;;22.75;45.28;100322.63;5071699;28;20040;-63
2023/06/06 08:36:53;;;;;;;3.30;1.95;;;;;;;22.76;46.48;100327.00;5071594;28;20044;-63
2023/06/06 08:39:19;;;;;;;3.30;2.13;;;;;;;22.77;45.38;100328.63;5071409;28;20036;-63
2023/06/06 08:41:53;;;;;;;5.78;2.25;;;;;;;22.97;45.65;100322.66;5071759;28;20042;-64
2023/06/06 08:44:20;;;;;;;2.08;1.58;;;;;;;23.18;44.38;100331.88;5071547;28;20522;-63
2023/06/06 08:46:48;;;;;;;2.13;1.63;;;;;;;23.39;42.89;100327.47;5071661;28;20043;-64
2023/06/06 08:49:17;;;;;;;3.60;2.30;;;;;;;23.43;42.33;100329.44;5071337;28;20029;-64
2023/06/06 08:51:43;;;;;;;3.88;2.03;;;;;;;23.51;41.86;100336.31;5071415;28;20089;-64
2023/06/06 08:54:10;;;;;;;2.07;1.73;;;;;;;23.15;43.54;100335.13;5071564;28;20093;-63
2023/06/06 08:56:37;;;;;;;3.23;1.70;;;;;;;23.25;43.51;100337.94;5071366;28;20306;-63
2023/06/06 08:59:02;;;;;;;3.03;2.05;;;;;;;23.34;42.65;100333.69;5071213;28;20040;-64
2023/06/06 09:01:28;;;;;;;3.60;2.05;;;;;;;23.80;42.63;100345.06;5071319;28;20436;-63
2023/06/06 09:03:56;;;;;;;3.78;2.00;;;;;;;23.74;42.56;100341.47;5071476;28;20481;-63
2023/06/06 09:06:21;;;;;;;2.25;1.73;;;;;;;24.09;41.43;100338.22;5071524;28;20536;-64
2023/06/06 09:08:48;;;;;;;3.42;1.90;;;;;;;24.10;41.36;100352.66;5073790;28;20036;-63
2023/06/06 09:11:15;;;;;;;2.15;1.77;;;;;;;24.05;41.78;100344.44;5075079;28;20040;-63
2023/06/06 09:13:45;;;;;;;2.42;1.90;;;;;;;24.09;41.69;100343.66;5075108;28;20021;-63
2023/06/06 09:16:12;;;;;;;2.90;1.70;;;;;;;24.18;42.11;100337.75;5074869;28;20102;-62
2023/06/06 09:18:38;;;;;;;;;;;;;;;24.20;42.42;100341.03;5075238;28;20041;-62
2023/06/06 09:21:04;;;;;;;2.70;1.90;;;;;;;24.41;41.31;100336.59;5074862;28;20330;-63
2023/06/06 09:23:31;;;;;;;4.03;2.03;;;;;;;24.43;42.62;100342.56;5074826;28;20048;-63
2023/06/06 09:25:57;;;;;;;3.60;2.40;;;;;;;24.80;41.79;100342.53;5074826;28;20576;-63
2023/06/06 09:28:36;;;;;;;4.18;2.28;;;;;;;24.94;40.80;100331.97;5074559;28;20037;-63
2023/06/06 09:31:23;;;;;;;4.68;2.25;;;;;;;24.95;40.76;100331.69;5074726;28;20040;-63
2023/06/06 09:33:53;;;;;;;3.22;2.75;;;;;;;24.81;41.00;100328.63;5074770;28;20045;-63
2023/06/06 09:36:21;;;;;;;2.90;2.05;;;;;;;25.17;42.10;100326.91;5074448;28;20033;-64
2023/06/06 09:38:48;;;;;;;3.05;2.00;;;;;;;24.84;40.56;100327.28;5074222;28;20048;-64
2023/06/06 09:41:13;;;;;;;3.35;1.90;;;;;;;24.94;39.89;100316.44;5074592;28;20078;-64
2023/06/06 09:43:39;;;;;;;4.03;2.15;;;;;;;25.41;41.33;100332.69;5073355;28;20033;-63
2023/06/06 09:46:05;;;;;;;2.50;1.70;;;;;;;25.78;40.50;100328.97;5074469;28;20063;-62
2023/06/06 09:48:31;;;;;;;2.30;1.80;;;;;;;26.11;39.35;100326.78;5074131;28;20393;-62
2023/06/06 09:50:58;;;;;;;2.90;2.03;;;;;;;25.93;39.73;100334.41;5074373;28;20033;-62
2023/06/06 09:53:25;;;;;;;2.20;1.90;;;;;;;25.92;39.75;100326.50;5074459;28;20512;-63
2023/06/06 09:55:52;;;;;;;3.55;1.98;;;;;;;26.20;39.49;100323.22;5074215;28;20051;-64
2023/06/06 09:58:19;;;;;;;;;;;;;;;26.42;39.08;100322.13;5073211;28;20514;-64
2023/06/06 10:00:47;;;;;;;3.22;2.20;;;;;;;26.54;39.05;100316.34;5074150;28;20373;-63
2023/06/06 10:03:21;;;;;;;3.95;1.98;;;;;;;26.48;37.84;100321.03;5074208;28;20048;-63
2023/06/06 10:05:50;;;;;;;3.60;2.10;;;;;;;26.55;37.89;100316.09;5074331;28;20117;-63
2023/06/06 10:08:17;;;;;;;2.70;1.75;;;;;;;26.43;38.28;100312.84;5073885;28;20173;-62
2023/06/06 10:10:46;;;;;;;3.33;2.20;;;;;;;26.91;37.63;100316.78;5073700;28;20127;-62
2023/06/06 10:13:16;;;;;;;3.60;2.05;;;;;;;26.96;36.69;100307.75;5073900;28;20039;-63
2023/06/06 10:15:42;;;;;;;3.55;2.17;;;;;;;27.24;36.71;100307.06;5073762;28;20493;-62
2023/06/06 10:18:09;;;;;;;2.55;1.88;;;;;;;27.64;35.70;100310.63;5073759;28;20120;-63
2023/06/06 10:20:36;;;;;;;2.75;2.03;;;;;;;27.91;34.42;100312.09;5073558;28;20090;-63
2023/06/06 10:23:02;;;;;;;2.88;2.03;;;;;;;27.90;33.20;100305.81;5073835;28;20078;-62
2023/06/06 10:25:29;;;;;;;2.22;1.92;;;;;;;27.77;33.92;100307.28;5073738;28;20037;-62
2023/06/06 10:27:58;;;;;;;3.33;2.13;;;;;;;27.87;35.06;100300.91;5073706;28;20038;-62
2023/06/06 10:30:32;;;;;;;2.97;1.90;;;;;;;28.21;34.24;100305.53;5073146;28;20286;-62
2023/06/06 10:33:41;;;;;;;3.42;2.40;;;;;;;28.22;33.07;100312.63;5073665;28;20036;-63
2023/06/06 10:36:08;;;;;;;4.63;2.33;;;;;;;27.93;33.60;100293.50;5073518;28;20072;-60
2023/06/06 10:38:34;;;;;;;2.90;2.25;;;;;;;28.31;31.96;100294.53;5073117;28;20129;-63
2023/06/06 10:41:01;;;;;;;2.78;2.15;;;;;;;28.07;31.44;100299.91;5073456;28;20071;-63
2023/06/06 10:43:32;;;;;;;;;;;;;;;27.91;32.37;100288.31;5073869;28;20393;-63
2023/06/06 10:45:58;;;;;;;3.63;2.53;;;;;;;28.71;32.03;100297.91;5073283;28;19923;-63
2023/06/06 10:48:45;;;;;;;3.10;2.13;;;;;;;29.07;31.35;100306.50;5073008;28;20114;-63
2023/06/06 10:51:34;;;;;;;;;;;;;;;28.82;31.52;100292.03;5073506;28;20036;-63
2023/06/06 10:54:15;;;;;;;4.00;2.08;;;;;;;29.25;31.64;100283.78;5073145;28;19917;-63
2023/06/06 10:56:45;;;;;;;3.42;2.38;;;;;;;29.26;31.79;100288.16;5073126;28;20032;-63
2023/06/06 10:59:12;;;;;;;2.95;2.20;;;;;;;29.19;31.40;100288.50;5072790;28;20032;-63
2023/06/06 11:01:40;;;;;;;3.15;2.35;;;;;;;29.60;31.23;100284.38;5073043;28;20055;-63
2023/06/06 11:04:18;;;;;;;2.75;1.92;;;;;;;29.69;30.48;100277.09;5072960;28;20109;-63
2023/06/06 11:06:45;;;;;;;2.75;2.30;;;;;;;29.94;30.95;100271.19;5072980;28;20048;-63
2023/06/06 11:09:21;;;;;;;2.92;1.90;;;;;;;29.88;29.99;100274.31;5072601;28;20102;-63
2023/06/06 11:11:46;;;;;;;2.07;1.83;;;;;;;30.20;29.34;100268.00;5072796;28;20040;-64
2023/06/06 11:14:12;;;;;;;2.95;2.00;;;;;;;30.18;29.70;100264.72;5072891;28;20313;-63
2023/06/06 11:16:37;;;;;;;3.33;2.47;;;;;;;30.66;28.89;100269.84;5072798;28;20097;-64
2023/06/06 11:19:26;;;;;;;2.88;2.05;;;;;;;30.13;29.05;100267.59;5072718;28;20028;-63
2023/06/06 11:22:00;;;;;;;3.28;2.00;;;;;;;29.68;28.45;100270.00;5052449;28;20098;-63
2023/06/06 11:24:32;;;;;;;2.13;1.92;;;;;;;29.89;29.22;100268.50;5052560;28;20033;-63
2023/06/06 11:26:58;;;;;;;2.50;2.00;;;;;;;30.06;28.66;100267.13;5052582;28;20075;-63
2023/06/06 11:29:25;;;;;;;3.60;2.22;;;;;;;30.66;28.17;100270.66;5052362;28;20056;-64
2023/06/06 11:31:51;;;;;;;2.78;1.83;;;;;;;30.48;27.99;100260.59;5051969;28;20091;-64
2023/06/06 11:34:16;;;;;;;2.30;1.92;;;;;;;30.69;27.98;100253.56;5052593;28;20045;-64
2023/06/06 11:36:44;;;;;;;2.27;2.07;;;;;;;31.36;28.00;100261.19;5052387;28;20037;-64
2023/06/06 11:39:11;;;;;;;3.42;2.25;;;;;;;31.36;27.32;100255.66;5052142;28;20036;-65
2023/06/06 11:41:45;;;;;;;3.08;2.00;;;;;;;31.70;26.51;100260.63;5052414;28;20053;-64
2023/06/06 11:44:12;;;;;;;3.15;2.08;;;;;;;31.70;27.25;100265.34;5052336;28;20116;-65
2023/06/06 11:46:51;;;;;;;3.13;2.25;;;;;;;30.83;28.18;100259.03;5052310;28;20037;-64
2023/06/06 11:49:18;;;;;;;2.65;2.10;;;;;;;30.61;28.40;100261.69;5052068;28;20370;-63
2023/06/06 11:51:53;;;;;;;2.63;1.92;;;;;;;31.33;27.55;100254.38;5052272;28;20037;-64
2023/06/06 11:54:19;;;;;;;2.65;2.08;;;;;;;30.76;28.30;100247.66;5052256;28;20047;-63
2023/06/06 11:56:45;;;;;;;2.53;2.10;;;;;;;31.22;28.83;100249.38;5052136;28;20033;-63
2023/06/06 11:59:12;;;;;;;2.60;1.80;;;;;;;31.37;28.20;100251.00;5051845;28;20040;-63
2023/06/06 12:01:44;;;;;;;;;;;;;;;31.74;27.17;100258.06;5052413;28;20116;-63
2023/06/06 12:04:11;;;;;;;4.32;2.30;;;;;;;31.93;26.97;100250.44;5056720;28;19912;-63
2023/06/06 12:06:36;;;;;;;4.13;2.20;;;;;;;32.40;26.02;100251.63;5059608;28;20017;-63
2023/06/06 12:09:03;;;;;;;3.23;2.07;;;;;;;31.64;25.86;100250.06;5061091;28;20032;-63
2023/06/06 12:11:31;;;;;;;3.50;2.30;;;;;;;31.54;26.41;100237.34;5061789;28;20481;-64
2023/06/06 12:13:57;;;;;;;3.15;2.50;;;;;;;31.71;26.17;100240.22;5051279;28;20037;-63
2023/06/06 12:16:26;;;;;;;6.85;2.13;;;;;;;32.01;26.08;100241.38;5059330;28;20543;-64
2023/06/06 12:18:51;;;;;;;2.33;1.75;;;;;;;31.73;25.38;100243.47;5059736;28;20043;-63
2023/06/06 12:21:17;;;;;;;2.33;2.13;;;;;;;32.09;25.78;100239.84;5062511;28;20016;-63
2023/06/06 12:23:44;;;;;;;3.47;2.13;;;;;;;32.45;24.30;100242.41;5060961;28;20386;-63
2023/06/06 12:26:15;;;;;;;2.95;1.98;;;;;;;32.49;24.27;100237.09;5061234;28;20087;-63
2023/06/06 12:29:00;;;;;;;3.03;1.98;;;;;;;32.42;25.41;100232.03;5062193;28;20043;-63
2023/06/06 12:31:27;;;;;;;3.03;2.13;;;;;;;32.28;24.27;100236.84;5061113;28;20441;-64
2023/06/06 12:33:56;;;;;;;2.70;2.28;;;;;;;32.26;23.20;100236.31;5059530;28;20028;-63
2023/06/06 12:36:24;;;;;;;2.25;1.98;;;;;;;32.44;23.69;100229.78;5062058;28;20044;-63
2023/06/06 12:38:55;;;;;;;2.35;1.92;;;;;;;32.87;22.86;100232.66;5061200;28;20107;-64
2023/06/06 12:41:21;;;;;;;3.47;2.30;;;;;;;31.50;25.08;100223.44;5060345;28;20079;-63
2023/06/06 12:43:47;;;;;;;3.17;2.47;;;;;;;31.82;25.71;100216.00;5064473;28;20033;-64
2023/06/06 12:46:12;;;;;;;2.87;2.03;;;;;;;32.52;25.10;100215.19;5065851;28;20029;-64
2023/06/06 12:48:38;;;;;;;2.97;2.40;;;;;;;32.52;24.51;100219.91;5063779;28;20048;-64
2023/06/06 12:51:03;;;;;;;3.43;2.30;;;;;;;33.36;23.25;100214.00;5065922;28;20458;-63
2023/06/06 12:53:28;;;;;;;3.73;2.40;;;;;;;31.89;23.84;100216.41;5065257;28;20041;-64
2023/06/06 12:55:54;;;;;;;3.93;2.43;;;;;;;31.66;24.43;100210.06;5072330;28;20044;-64
2023/06/06 12:58:20;;;;;;;2.60;2.10;;;;;;;30.96;25.75;100213.41;5020872;28;20045;-63
2023/06/06 13:00:46;;;;;;;2.37;1.93;;;;;;;30.65;26.00;100207.75;5037491;28;20041;-64
2023/06/06 13:03:11;;;;;;;3.17;2.17;;;;;;;30.50;25.97;100217.94;5055367;28;20033;-64
2023/06/06 13:05:37;;;;;;;2.50;2.00;;;;;;;30.18;27.27;100213.34;5055385;28;20052;-64
2023/06/06 13:08:02;;;;;;;2.90;2.33;;;;;;;29.83;26.84;100214.00;5037523;28;20037;-63
2023/06/06 13:10:28;;;;;;;3.73;2.20;;;;;;;29.28;28.19;100209.16;5054925;28;20458;-63
2023/06/06 13:12:53;;;;;;;2.95;2.63;;;;;;;28.98;30.17;100210.41;5037301;28;20128;-64
2023/06/06 13:15:19;;;;;;;2.53;2.10;;;;;;;28.45;31.53;100217.94;5037428;28;20044;-63
2023/06/06 13:17:44;;;;;;;3.08;2.40;;;;;;;28.59;31.68;100216.13;5054995;28;20041;-64
2023/06/06 13:20:10;;;;;;;3.35;2.42;;;;;;;27.89;32.26;100224.00;5054669;28;20025;-64
2023/06/06 13:22:36;;;;;;;3.60;2.35;;;;;;;27.61;32.14;100217.38;5055117;28;20498;-64
2023/06/06 13:25:03;;;;;;;3.90;2.50;;;;;;;27.68;32.77;100218.72;5055241;28;20043;-64
2023/06/06 13:27:28;;;;;;;3.53;2.80;;;;;;;27.53;32.28;100224.28;5054834;28;20044;-64
2023/06/06 13:29:54;;;;;;;4.38;3.08;;;;;;;27.15;33.53;100221.28;5054600;28;20029;-65
2023/06/06 13:32:19;;;;;;;3.75;2.50;;;;;;;27.37;33.42;100225.50;5053495;28;20481;-64
2023/06/06 13:34:44;;;;;;;2.92;2.17;;;;;;;26.87;34.07;100222.00;5054767;28;20108;-63
2023/06/06 13:37:10;;;;;;;3.33;2.60;;;;;;;27.13;33.84;100215.31;5054729;28;20037;-64
2023/06/06 13:39:36;;;;;;;4.03;2.45;;;;;;;27.09;32.99;100213.41;5054401;28;20045;-65
2023/06/06 13:42:01;;;;;;;3.80;2.67;;;;;;;27.21;32.01;100214.69;5062293;28;20032;-65
2023/06/06 13:44:27;;;;;;;3.88;2.47;;;;;;;27.08;32.39;100215.31;5073294;28;20496;-64
2023/06/06 13:46:52;;;;;;;2.53;2.22;;;;;;;27.07;32.86;100210.16;5070054;28;20166;-64
2023/06/06 13:49:17;;;;;;;4.40;2.47;;;;;;;27.03;32.37;100205.22;5069351;28;20525;-64
2023/06/06 13:51:44;;;;;;;4.20;2.90;;;;;;;26.97;31.69;100200.88;5074233;28;20056;-64
2023/06/06 13:54:10;;;;;;;4.00;2.63;;;;;;;26.99;32.65;100203.31;5073891;28;20121;-63
2023/06/06 13:56:38;;;;;;;3.25;2.47;;;;;;;26.83;32.35;100202.59;5074194;28;20456;-65
2023/06/06 13:59:03;;;;;;;4.00;2.30;;;;;;;26.79;32.34;100199.59;5073552;28;20032;-65
2023/06/06 14:01:29;;;;;;;3.40;2.72;;;;;;;26.86;32.26;100195.75;5074586;28;20032;-65
2023/06/06 14:03:55;;;;;;;3.25;2.42;;;;;;;27.05;32.02;100194.00;5073137;28;20067;-65
2023/06/06 14:06:21;;;;;;;5.75;2.50;;;;;;;27.02;32.74;100197.28;5074008;28;20093;-64
2023/06/06 14:08:46;;;;;;;3.90;2.20;;;;;;;26.95;32.83;100191.34;5073405;28;20044;-63
2023/06/06 14:11:14;;;;;;;4.47;2.35;;;;;;;26.52;32.13;100191.81;5073916;28;20051;-63
2023/06/06 14:13:39;;;;;;;3.90;2.67;;;;;;;26.66;32.12;100185.75;5073910;28;20029;-63
2023/06/06 14:16:11;;;;;;;3.58;2.88;;;;;;;26.79;32.52;100185.94;5073757;28;20085;-63
2023/06/06 14:18:40;;;;;;;5.30;2.67;;;;;;;26.96;32.91;100182.03;5073034;28;20436;-63
2023/06/06 14:23:43;;;;;;;3.92;2.45;;;;;;;27.03;32.15;100182.53;5073589;28;20064;-64
2023/06/06 14:26:09;;;;;;;3.22;2.63;;;;;;;27.10;31.73;100177.59;5073391;28;20060;-64
2023/06/06 14:28:35;;;;;;;3.72;2.85;;;;;;;27.06;32.02;100168.34;5072696;28;20044;-64
2023/06/06 14:31:02;;;;;;;3.08;2.65;;;;;;;27.08;32.53;100174.31;5073359;28;20036;-64
2023/06/06 14:33:28;;;;;;;2.67;2.30;;;;;;;27.34;32.21;100172.22;5073661;28;20036;-63
2023/06/06 14:35:53;;;;;;;4.72;2.90;;;;;;;26.95;32.23;100162.09;5073188;28;20051;-63
2023/06/06 14:38:19;;;;;;;4.20;2.83;;;;;;;26.81;32.46;100163.00;5072903;28;20036;-63
2023/06/06 14:40:45;;;;;;;4.47;2.80;;;;;;;26.94;32.87;100167.84;5071833;28;20041;-63
2023/06/06 14:43:11;;;;;;;2.97;2.30;;;;;;;27.05;32.59;100172.97;5073459;28;20032;-63
2023/06/06 14:45:37;;;;;;;4.07;2.55;;;;;;;27.20;32.40;100168.50;5073224;28;20117;-63
2023/06/06 14:48:02;;;;;;;3.70;2.63;;;;;;;27.25;32.83;100168.44;5073304;28;20496;-63
2023/06/06 14:50:27;;;;;;;2.72;2.33;;;;;;;27.07;33.32;100169.16;5072412;28;20029;-64
2023/06/06 14:52:53;;;;;;;5.05;2.65;;;;;;;27.21;33.78;100168.22;5073018;28;20037;-64
2023/06/06 14:55:18;;;;;;;3.85;2.85;;;;;;;27.12;34.07;100169.09;5072552;28;20032;-64
2023/06/06 14:57:44;;;;;;;2.92;2.40;;;;;;;26.96;34.46;100174.63;5072881;28;20394;-63
2023/06/06 15:00:10;;;;;;;3.70;2.60;;;;;;;27.06;33.60;100157.41;5071949;28;20075;-63
2023/06/06 15:02:35;;;;;;;3.10;2.42;;;;;;;26.89;34.32;100165.13;5072499;28;20048;-64
2023/06/06 15:05:01;;;;;;;3.85;3.15;;;;;;;27.12;34.70;100166.34;5071800;28;20036;-63
2023/06/06 15:07:27;;;;;;;4.38;2.75;;;;;;;27.07;34.79;100175.44;5072470;28;20127;-64
2023/06/06 15:09:54;;;;;;;3.50;2.70;;;;;;;27.15;35.35;100171.28;5071636;28;20090;-63
2023/06/06 15:12:20;;;;;;;3.10;2.10;;;;;;;27.27;34.36;100167.06;5072591;28;20037;-64
2023/06/06 15:14:45;;;;;;;3.55;2.45;;;;;;;27.16;34.10;100170.97;5072371;28;20139;-64
2023/06/06 15:17:11;;;;;;;5.60;2.70;;;;;;;27.12;33.79;100166.34;5072198;28;20040;-63
2023/06/06 15:19:45;;;;;;;5.82;2.42;;;;;;;27.20;34.03;100169.31;5071794;28;20101;-64
2023/06/06 15:22:12;;;;;;;3.22;2.53;;;;;;;27.20;34.64;100165.78;5072126;28;20032;-64
2023/06/06 15:24:38;;;;;;;4.30;2.38;;;;;;;27.05;35.31;100167.50;5072106;28;20039;-63
2023/06/06 15:27:05;;;;;;;4.63;2.70;;;;;;;26.90;35.31;100162.13;5072038;28;20037;-64
2023/06/06 15:29:32;;;;;;;4.57;2.67;;;;;;;27.05;33.58;100158.47;5071653;28;20484;-63
2023/06/06 15:31:58;;;;;;;4.05;2.42;;;;;;;26.79;34.08;100161.34;5072141;28;20043;-63
2023/06/06 15:34:24;;;;;;;3.25;2.63;;;;;;;26.73;33.40;100159.78;5071906;28;20036;-64
2023/06/06 15:36:50;;;;;;;3.35;2.60;;;;;;;26.51;33.66;100148.41;5071845;28;20488;-64
2023/06/06 15:39:16;;;;;;;2.67;2.28;;;;;;;26.48;34.54;100154.44;5071294;28;20033;-64
2023/06/06 15:41:41;;;;;;;3.75;2.60;;;;;;;26.65;34.42;100152.16;5071827;28;20448;-66
2023/06/06 15:44:09;;;;;;;3.67;2.58;;;;;;;26.43;34.07;100147.09;5071779;28;20039;-64
2023/06/06 15:46:35;;;;;;;3.65;2.35;;;;;;;26.43;34.31;100152.56;5071839;28;20613;-64
2023/06/06 15:49:01;;;;;;;6.70;2.60;;;;;;;26.16;33.65;100150.19;5071036;28;20044;-60
2023/06/06 15:51:26;;;;;;;3.47;2.60;;;;;;;26.38;33.51;100149.00;5071645;28;20032;-58